createdAt,value
2023-05-10T00:00:39.154Z,16.77
2023-05-10T00:01:40.079Z,17.04
2023-05-10T00:02:41.038Z,17.19
2023-05-10T00:03:42.075Z,17.25
2023-05-10T00:04:42.469Z,17.24
2023-05-10T00:05:43.618Z,17.20
2023-05-10T00:06:44.012Z,17.09
2023-05-10T00:07:44.853Z,17.01
2023-05-10T00:08:45.776Z,16.97
2023-05-10T00:09:46.606Z,16.88
2023-05-10T00:10:47.542Z,16.80
2023-05-10T00:11:48.670Z,16.72
2023-05-10T00:12:49.100Z,16.67
2023-05-10T00:13:49.982Z,16.73
2023-05-10T00:14:50.862Z,16.80
2023-05-10T00:15:51.788Z,16.88
2023-05-10T00:16:52.792Z,16.87
2023-05-10T00:17:53.564Z,16.90
2023-05-10T00:18:53.980Z,16.88
2023-05-10T00:19:54.865Z,16.88
2023-05-10T00:20:55.701Z,16.79
2023-05-10T00:21:56.592Z,16.76
2023-05-10T00:22:57.443Z,16.69
2023-05-10T00:23:58.653Z,16.62
2023-05-10T00:24:59.249Z,16.59
2023-05-10T00:26:00.134Z,16.54
2023-05-10T00:27:01.049Z,16.47
2023-05-10T00:28:01.883Z,16.40
2023-05-10T00:29:02.781Z,16.46
2023-05-10T00:30:03.973Z,16.54
2023-05-10T00:31:04.319Z,16.67
2023-05-10T00:32:05.224Z,16.80
2023-05-10T00:33:06.131Z,16.90
2023-05-10T00:34:07.116Z,16.91
2023-05-10T00:35:07.973Z,16.88
2023-05-10T00:36:09.138Z,16.79
2023-05-10T00:37:09.509Z,16.72
2023-05-10T00:38:10.369Z,16.62
2023-05-10T00:39:11.261Z,16.58
2023-05-10T00:40:12.135Z,16.51
2023-05-10T00:41:13.042Z,16.46
2023-05-10T00:42:14.210Z,16.43
2023-05-10T00:43:14.595Z,16.52
2023-05-10T00:44:15.502Z,16.61
2023-05-10T00:45:16.354Z,16.74
2023-05-10T00:46:17.249Z,16.84
2023-05-10T00:47:18.123Z,16.87
2023-05-10T00:48:19.009Z,16.84
2023-05-10T00:49:19.952Z,16.80
2023-05-10T00:50:20.806Z,16.76
2023-05-10T00:51:21.676Z,16.69
2023-05-10T00:52:22.567Z,16.58
2023-05-10T00:53:23.736Z,16.51
2023-05-10T00:54:24.137Z,16.42
2023-05-10T00:55:25.033Z,16.29
2023-05-10T00:56:25.911Z,16.28
2023-05-10T00:57:26.803Z,16.32
2023-05-10T00:58:27.684Z,16.37
2023-05-10T00:59:28.852Z,16.46
2023-05-10T01:00:29.195Z,16.49
2023-05-10T01:01:30.157Z,16.49
2023-05-10T01:02:31.113Z,16.40
2023-05-10T01:03:31.560Z,16.34
2023-05-10T01:04:32.477Z,16.24
2023-05-10T01:05:33.327Z,16.09
2023-05-10T01:06:34.186Z,16.05
2023-05-10T01:07:35.078Z,16.00
2023-05-10T01:08:35.965Z,15.99
2023-05-10T01:09:36.877Z,15.98
2023-05-10T01:10:37.736Z,15.95
2023-05-10T01:11:38.652Z,16.05
2023-05-10T01:12:39.530Z,16.13
2023-05-10T01:13:40.414Z,16.13
2023-05-10T01:14:41.317Z,16.05
2023-05-10T01:15:42.217Z,16.00
2023-05-10T01:16:43.098Z,15.90
2023-05-10T01:17:43.985Z,15.83
2023-05-10T01:18:44.870Z,15.76
2023-05-10T01:19:45.786Z,15.65
2023-05-10T01:20:46.628Z,15.62
2023-05-10T01:21:47.785Z,15.62
2023-05-10T01:22:48.158Z,15.59
2023-05-10T01:23:49.041Z,15.58
2023-05-10T01:24:49.989Z,15.58
2023-05-10T01:25:50.821Z,15.59
2023-05-10T01:26:51.688Z,15.58
2023-05-10T01:27:52.857Z,15.58
2023-05-10T01:28:53.197Z,15.54
2023-05-10T01:30:09.165Z,15.52
2023-05-10T01:30:55.914Z,15.63
2023-05-10T01:31:55.750Z,15.84
2023-05-10T01:32:56.719Z,16.05
2023-05-10T01:33:57.868Z,16.21
2023-05-10T01:34:58.281Z,16.26
2023-05-10T01:35:59.138Z,16.37
2023-05-10T01:37:00.068Z,16.49
2023-05-10T01:38:00.925Z,16.59
2023-05-10T01:39:01.796Z,16.67
2023-05-10T01:40:02.965Z,16.67
2023-05-10T01:41:03.344Z,16.69
2023-05-10T01:42:04.218Z,16.67
2023-05-10T01:43:05.120Z,16.64
2023-05-10T01:44:05.965Z,16.59
2023-05-10T01:45:06.859Z,16.52
2023-05-10T01:46:08.032Z,16.43
2023-05-10T01:47:08.395Z,16.34
2023-05-10T01:48:09.335Z,16.25
2023-05-10T01:49:10.170Z,16.16
2023-05-10T01:50:11.088Z,16.06
2023-05-10T01:51:11.949Z,16.00
2023-05-10T01:52:13.076Z,16.02
2023-05-10T01:53:13.454Z,16.06
2023-05-10T01:54:14.314Z,16.16
2023-05-10T01:55:15.200Z,16.28
2023-05-10T01:56:16.083Z,16.39
2023-05-10T01:57:16.962Z,16.47
2023-05-10T01:58:18.129Z,16.52
2023-05-10T01:59:18.481Z,16.52
2023-05-10T02:00:19.418Z,16.51
2023-05-10T02:01:20.337Z,16.44
2023-05-10T02:02:21.211Z,16.36
2023-05-10T02:03:22.147Z,16.25
2023-05-10T02:04:23.261Z,16.17
2023-05-10T02:05:23.697Z,16.06
2023-05-10T02:06:24.596Z,16.02
2023-05-10T02:07:25.437Z,15.96
2023-05-10T02:08:26.327Z,15.90
2023-05-10T02:09:27.198Z,15.93
2023-05-10T02:10:28.396Z,16.02
2023-05-10T02:11:28.752Z,16.10
2023-05-10T02:12:29.626Z,16.22
2023-05-10T02:13:30.586Z,16.29
2023-05-10T02:14:31.013Z,16.21
2023-05-10T02:15:31.946Z,16.09
2023-05-10T02:16:33.116Z,15.98
2023-05-10T02:17:33.517Z,15.90
2023-05-10T02:18:34.356Z,15.73
2023-05-10T02:19:35.221Z,15.60
2023-05-10T02:20:36.242Z,15.58
2023-05-10T02:21:37.080Z,15.47
2023-05-10T02:22:38.272Z,15.43
2023-05-10T02:23:38.619Z,15.51
2023-05-10T02:24:39.473Z,15.48
2023-05-10T02:25:40.385Z,15.47
2023-05-10T02:26:41.266Z,15.43
2023-05-10T02:27:42.133Z,15.36
2023-05-10T02:28:43.022Z,15.20
2023-05-10T02:29:44.182Z,14.99
2023-05-10T02:30:44.593Z,14.83
2023-05-10T02:31:45.523Z,14.56
2023-05-10T02:32:46.492Z,14.36
2023-05-10T02:33:47.362Z,14.13
2023-05-10T02:34:48.224Z,14.05
2023-05-10T02:35:49.428Z,14.09
2023-05-10T02:36:49.795Z,14.13
2023-05-10T02:37:50.689Z,14.16
2023-05-10T02:38:51.560Z,14.22
2023-05-10T02:39:52.421Z,14.38
2023-05-10T02:40:53.318Z,14.38
2023-05-10T02:41:54.500Z,14.26
2023-05-10T02:42:54.839Z,14.15
2023-05-10T02:43:55.704Z,14.18
2023-05-10T02:44:56.604Z,14.08
2023-05-10T02:45:57.495Z,13.97
2023-05-10T02:46:58.385Z,13.85
2023-05-10T02:47:59.300Z,13.80
2023-05-10T02:48:59.742Z,13.78
2023-05-10T02:50:00.649Z,13.73
2023-05-10T02:51:01.552Z,13.71
2023-05-10T02:52:02.408Z,13.63
2023-05-10T02:53:03.293Z,13.61
2023-05-10T02:54:04.456Z,13.63
2023-05-10T02:55:04.836Z,13.71
2023-05-10T02:56:05.766Z,13.72
2023-05-10T02:57:06.607Z,13.75
2023-05-10T02:58:07.495Z,13.82
2023-05-10T02:59:08.353Z,13.86
2023-05-10T03:00:09.515Z,13.91
2023-05-10T03:01:09.919Z,14.00
2023-05-10T03:02:10.800Z,14.09
2023-05-10T03:03:11.651Z,14.19
2023-05-10T03:04:12.535Z,14.26
2023-05-10T03:05:13.393Z,14.26
2023-05-10T03:06:14.311Z,14.30
2023-05-10T03:07:15.156Z,14.31
2023-05-10T03:08:16.056Z,14.36
2023-05-10T03:09:16.910Z,14.38
2023-05-10T03:10:18.050Z,14.36
2023-05-10T03:11:18.589Z,14.21
2023-05-10T03:12:19.741Z,14.12
2023-05-10T03:13:20.115Z,14.01
2023-05-10T03:14:21.003Z,13.94
2023-05-10T03:15:21.857Z,13.93
2023-05-10T03:16:22.828Z,13.90
2023-05-10T03:17:23.325Z,13.86
2023-05-10T03:18:24.445Z,13.83
2023-05-10T03:19:24.824Z,13.83
2023-05-10T03:20:25.691Z,13.82
2023-05-10T03:21:26.615Z,13.79
2023-05-10T03:22:27.473Z,13.72
2023-05-10T03:23:28.325Z,13.67
2023-05-10T03:24:29.496Z,13.64
2023-05-10T03:25:29.855Z,13.65
2023-05-10T03:26:30.777Z,13.72
2023-05-10T03:27:31.679Z,13.78
2023-05-10T03:28:32.550Z,13.91
2023-05-10T03:29:33.400Z,13.97
2023-05-10T03:30:34.564Z,13.98
2023-05-10T03:31:35.013Z,13.88
2023-05-10T03:32:35.927Z,13.76
2023-05-10T03:33:36.813Z,13.67
2023-05-10T03:34:37.664Z,13.65
2023-05-10T03:35:38.539Z,13.63
2023-05-10T03:36:39.740Z,13.63
2023-05-10T03:37:40.110Z,13.64
2023-05-10T03:38:40.960Z,13.64
2023-05-10T03:39:41.842Z,13.67
2023-05-10T03:40:42.708Z,13.76
2023-05-10T03:41:43.607Z,13.80
2023-05-10T03:42:44.751Z,13.90
2023-05-10T03:43:45.132Z,13.98
2023-05-10T03:44:45.993Z,14.05
2023-05-10T03:45:46.920Z,14.03
2023-05-10T03:46:47.787Z,14.01
2023-05-10T03:47:48.671Z,14.04
2023-05-10T03:48:49.838Z,14.15
2023-05-10T03:49:50.174Z,14.18
2023-05-10T03:50:51.042Z,14.15
2023-05-10T03:51:51.953Z,14.04
2023-05-10T03:52:54.632Z,14.01
2023-05-10T03:53:53.682Z,13.88
2023-05-10T03:54:54.546Z,13.82
2023-05-10T03:55:55.688Z,13.80
2023-05-10T03:56:56.074Z,13.75
2023-05-10T03:57:56.956Z,13.71
2023-05-10T03:58:57.817Z,13.75
2023-05-10T03:59:58.701Z,13.72
2023-05-10T04:00:59.580Z,13.68
2023-05-10T04:02:00.514Z,13.72
2023-05-10T04:03:01.437Z,13.67
2023-05-10T04:04:02.328Z,13.71
2023-05-10T04:05:03.185Z,13.76
2023-05-10T04:06:04.105Z,13.82
2023-05-10T04:07:05.301Z,13.86
2023-05-10T04:08:05.649Z,13.86
2023-05-10T04:09:06.522Z,13.83
2023-05-10T04:10:07.435Z,13.80
2023-05-10T04:11:08.320Z,13.79
2023-05-10T04:12:10.867Z,13.76
2023-05-10T04:13:10.007Z,13.73
2023-05-10T04:14:11.117Z,13.73
2023-05-10T04:15:11.497Z,13.72
2023-05-10T04:16:12.359Z,13.71
2023-05-10T04:17:13.386Z,13.65
2023-05-10T04:18:13.849Z,13.65
2023-05-10T04:19:14.732Z,13.68
2023-05-10T04:20:16.150Z,13.75
2023-05-10T04:21:16.196Z,13.82
2023-05-10T04:22:17.178Z,13.91
2023-05-10T04:23:18.042Z,13.97
2023-05-10T04:24:18.902Z,13.98
2023-05-10T04:25:19.773Z,13.96
2023-05-10T04:26:20.932Z,13.91
2023-05-10T04:27:21.347Z,13.83
2023-05-10T04:28:22.221Z,13.80
2023-05-10T04:29:23.130Z,13.78
2023-05-10T04:30:24.005Z,13.73
2023-05-10T04:31:25.031Z,13.73
2023-05-10T04:32:25.570Z,13.71
2023-05-10T04:33:25.939Z,13.72
2023-05-10T04:34:26.821Z,13.78
2023-05-10T04:35:27.694Z,13.91
2023-05-10T04:36:28.584Z,13.94
2023-05-10T04:37:29.469Z,13.97
2023-05-10T04:38:30.601Z,13.98
2023-05-10T04:39:30.973Z,13.96
2023-05-10T04:40:31.872Z,13.97
2023-05-10T04:41:32.721Z,13.94
2023-05-10T04:42:33.627Z,13.91
2023-05-10T04:43:34.522Z,13.93
2023-05-10T04:44:35.671Z,13.86
2023-05-10T04:45:36.023Z,13.82
2023-05-10T04:46:36.929Z,13.78
2023-05-10T04:47:37.957Z,13.79
2023-05-10T04:48:38.304Z,13.79
2023-05-10T04:49:39.286Z,13.79
2023-05-10T04:50:40.395Z,13.82
2023-05-10T04:51:40.769Z,13.86
2023-05-10T04:52:41.688Z,13.96
2023-05-10T04:53:46.448Z,14.05
2023-05-10T04:54:44.325Z,14.11
2023-05-10T04:55:44.183Z,14.12
2023-05-10T04:56:45.436Z,14.08
2023-05-10T04:57:46.821Z,14.08
2023-05-10T04:58:46.684Z,14.04
2023-05-10T04:59:50.215Z,14.00
2023-05-10T05:00:48.221Z,13.94
2023-05-10T05:01:49.127Z,13.90
2023-05-10T05:02:50.053Z,13.85
2023-05-10T05:03:51.482Z,13.88
2023-05-10T05:04:51.880Z,13.97
2023-05-10T05:05:52.754Z,14.11
2023-05-10T05:06:54.124Z,14.27
2023-05-10T05:07:54.569Z,14.48
2023-05-10T05:08:55.413Z,14.64
2023-05-10T05:09:56.305Z,14.77
2023-05-10T05:10:57.185Z,14.85
2023-05-10T05:11:58.074Z,14.92
2023-05-10T05:12:59.022Z,14.90
2023-05-10T05:13:59.965Z,14.97
2023-05-10T05:15:00.809Z,15.01
2023-05-10T05:16:01.221Z,15.04
2023-05-10T05:17:02.112Z,15.01
2023-05-10T05:18:03.098Z,14.86
2023-05-10T05:19:03.463Z,14.63
2023-05-10T05:20:04.362Z,14.46
2023-05-10T05:21:05.217Z,14.31
2023-05-10T05:22:06.422Z,14.27
2023-05-10T05:23:06.842Z,14.21
2023-05-10T05:24:07.718Z,14.22
2023-05-10T05:25:08.579Z,14.27
2023-05-10T05:26:09.449Z,14.38
2023-05-10T05:27:10.337Z,14.45
2023-05-10T05:28:11.255Z,14.55
2023-05-10T05:29:12.162Z,14.58
2023-05-10T05:30:13.001Z,14.70
2023-05-10T05:31:13.934Z,14.83
2023-05-10T05:32:14.775Z,14.96
2023-05-10T05:33:15.699Z,15.04
2023-05-10T05:34:16.566Z,15.10
2023-05-10T05:35:17.671Z,15.08
2023-05-10T05:36:18.180Z,15.10
2023-05-10T05:37:19.035Z,15.08
2023-05-10T05:38:20.000Z,15.12
2023-05-10T05:39:20.863Z,15.10
2023-05-10T05:40:21.737Z,15.05
2023-05-10T05:41:22.612Z,15.10
2023-05-10T05:42:23.506Z,15.08
2023-05-10T05:43:24.468Z,15.14
2023-05-10T05:44:25.356Z,15.17
2023-05-10T05:45:27.542Z,15.19
2023-05-10T05:46:27.053Z,15.17
2023-05-10T05:47:27.468Z,15.14
2023-05-10T05:48:28.338Z,15.11
2023-05-10T05:49:29.229Z,15.12
2023-05-10T05:50:30.114Z,15.20
2023-05-10T05:51:31.366Z,15.20
2023-05-10T05:52:31.759Z,15.22
2023-05-10T05:53:32.651Z,15.22
2023-05-10T05:54:33.517Z,15.20
2023-05-10T05:55:34.697Z,15.20
2023-05-10T05:56:35.082Z,15.10
2023-05-10T05:57:35.955Z,15.05
2023-05-10T05:58:37.229Z,14.92
2023-05-10T05:59:37.582Z,14.86
2023-05-10T06:00:38.467Z,14.90
2023-05-10T06:01:39.369Z,14.87
2023-05-10T06:02:40.333Z,14.95
2023-05-10T06:03:41.002Z,15.04
2023-05-10T06:04:44.709Z,15.15
2023-05-10T06:05:42.261Z,15.22
2023-05-10T06:06:43.185Z,15.26
2023-05-10T06:07:44.078Z,15.26
2023-05-10T06:08:45.011Z,15.23
2023-05-10T06:09:45.933Z,15.23
2023-05-10T06:10:48.407Z,15.23
2023-05-10T06:11:47.955Z,15.15
2023-05-10T06:12:48.480Z,15.08
2023-05-10T06:13:48.967Z,15.04
2023-05-10T06:14:49.847Z,14.97
2023-05-10T06:15:50.773Z,14.93
2023-05-10T06:16:51.767Z,14.85
2023-05-10T06:17:53.440Z,14.78
2023-05-10T06:18:53.856Z,14.74
2023-05-10T06:19:54.240Z,14.79
2023-05-10T06:20:55.127Z,14.89
2023-05-10T06:21:56.026Z,15.01
2023-05-10T06:22:59.514Z,15.10
2023-05-10T06:23:58.052Z,15.14
2023-05-10T06:24:58.543Z,15.14
2023-05-10T06:26:02.034Z,15.15
2023-05-10T06:27:01.240Z,15.22
2023-05-10T06:28:01.415Z,15.27
2023-05-10T06:29:05.090Z,15.32
2023-05-10T06:30:12.267Z,15.38
2023-05-10T06:31:04.311Z,15.38
2023-05-10T06:32:04.195Z,15.41
2023-05-10T06:33:05.204Z,15.41
2023-05-10T06:34:05.904Z,15.43
2023-05-10T06:35:06.893Z,15.40
2023-05-10T06:36:07.747Z,15.38
2023-05-10T06:37:08.690Z,15.33
2023-05-10T06:38:09.579Z,15.29
2023-05-10T06:39:10.526Z,15.27
2023-05-10T06:40:11.386Z,15.23
2023-05-10T06:41:12.283Z,15.17
2023-05-10T06:42:13.212Z,14.99
2023-05-10T06:43:14.103Z,14.83
2023-05-10T06:44:15.053Z,14.78
2023-05-10T06:45:37.289Z,14.74
2023-05-10T06:46:16.725Z,14.79
2023-05-10T06:47:17.603Z,14.82
2023-05-10T06:48:18.585Z,14.82
2023-05-10T06:49:19.555Z,14.85
2023-05-10T06:50:20.455Z,14.89
2023-05-10T06:51:21.352Z,15.17
2023-05-10T06:52:22.537Z,15.43
2023-05-10T06:53:22.935Z,15.62
2023-05-10T06:54:23.926Z,15.87
2023-05-10T06:55:24.417Z,16.02
2023-05-10T06:56:25.353Z,16.16
2023-05-10T06:57:31.612Z,16.29
2023-05-10T06:58:29.440Z,16.37
2023-05-10T06:59:27.987Z,16.42
2023-05-10T07:00:28.512Z,16.40
2023-05-10T07:01:29.417Z,16.42
2023-05-10T07:02:30.332Z,16.46
2023-05-10T07:03:31.203Z,16.47
2023-05-10T07:04:32.226Z,16.47
2023-05-10T07:05:32.660Z,16.59
2023-05-10T07:06:34.068Z,16.74
2023-05-10T07:07:34.456Z,16.82
2023-05-10T07:08:35.351Z,16.98
2023-05-10T07:09:36.317Z,17.06
2023-05-10T07:10:37.563Z,17.10
2023-05-10T07:11:38.160Z,17.16
2023-05-10T07:12:38.558Z,17.28
2023-05-10T07:13:39.486Z,17.24
2023-05-10T07:14:40.427Z,17.27
2023-05-10T07:15:41.312Z,17.25
2023-05-10T07:16:42.611Z,17.25
2023-05-10T07:17:45.514Z,17.24
2023-05-10T07:18:43.805Z,17.28
2023-05-10T07:19:44.716Z,17.37
2023-05-10T07:20:45.629Z,17.41
2023-05-10T07:21:46.553Z,17.38
2023-05-10T07:22:48.799Z,17.38
2023-05-10T07:23:48.157Z,17.32
2023-05-10T07:24:49.228Z,17.20
2023-05-10T07:25:49.602Z,16.98
2023-05-10T07:26:50.492Z,16.92
2023-05-10T07:27:51.393Z,16.88
2023-05-10T07:28:52.294Z,16.98
2023-05-10T07:29:53.182Z,17.02
2023-05-10T07:30:54.132Z,17.07
2023-05-10T07:31:56.507Z,17.07
2023-05-10T07:32:55.498Z,17.09
2023-05-10T07:33:56.417Z,16.97
2023-05-10T07:34:57.308Z,16.95
2023-05-10T07:35:58.266Z,16.91
2023-05-10T07:36:59.187Z,16.83
2023-05-10T07:38:00.091Z,16.80
2023-05-10T07:39:01.114Z,16.91
2023-05-10T07:40:02.073Z,16.97
2023-05-10T07:41:02.562Z,17.02
2023-05-10T07:42:03.451Z,17.14
2023-05-10T07:43:04.434Z,17.25
2023-05-10T07:44:05.306Z,17.32
2023-05-10T07:45:06.625Z,17.54
2023-05-10T07:46:07.242Z,17.72
2023-05-10T07:47:07.864Z,17.81
2023-05-10T07:48:08.442Z,18.01
2023-05-10T07:49:09.318Z,18.08
2023-05-10T07:50:10.081Z,18.17
2023-05-10T07:51:12.190Z,18.31
2023-05-10T07:52:11.919Z,18.39
2023-05-10T07:53:12.450Z,18.45
2023-05-10T07:54:13.627Z,18.46
2023-05-10T07:55:14.689Z,18.48
2023-05-10T07:56:14.769Z,18.24
2023-05-10T07:57:17.626Z,18.01
2023-05-10T07:58:16.633Z,17.78
2023-05-10T07:59:17.858Z,17.69
2023-05-10T08:00:18.492Z,17.69
2023-05-10T08:01:19.691Z,17.54
2023-05-10T08:02:19.701Z,17.43
2023-05-10T08:03:20.211Z,17.53
2023-05-10T08:04:21.154Z,17.62
2023-05-10T08:05:21.830Z,17.62
2023-05-10T08:06:22.528Z,17.71
2023-05-10T08:07:23.241Z,17.72
2023-05-10T08:08:23.670Z,17.72
2023-05-10T08:09:24.555Z,17.65
2023-05-10T08:10:26.969Z,17.59
2023-05-10T08:11:26.347Z,17.63
2023-05-10T08:12:27.985Z,17.71
2023-05-10T08:13:28.562Z,17.59
2023-05-10T08:14:29.987Z,17.68
2023-05-10T08:15:29.579Z,17.72
2023-05-10T08:16:30.249Z,17.75
2023-05-10T08:17:30.705Z,17.81
2023-05-10T08:18:31.626Z,17.66
2023-05-10T08:19:32.555Z,17.41
2023-05-10T08:20:33.547Z,17.10
2023-05-10T08:21:34.009Z,16.98
2023-05-10T08:22:34.963Z,16.84
2023-05-10T08:23:36.188Z,16.91
2023-05-10T08:24:36.595Z,16.94
2023-05-10T08:25:37.538Z,16.98
2023-05-10T08:26:38.410Z,17.10
2023-05-10T08:27:39.284Z,17.16
2023-05-10T08:28:40.197Z,17.17
2023-05-10T08:29:49.487Z,17.28
2023-05-10T08:30:42.965Z,17.34
2023-05-10T08:31:42.961Z,17.20
2023-05-10T08:32:43.467Z,17.14
2023-05-10T08:33:44.679Z,17.06
2023-05-10T08:34:45.250Z,16.99
2023-05-10T08:35:46.235Z,16.95
2023-05-10T08:36:48.435Z,16.90
2023-05-10T08:37:47.885Z,16.91
2023-05-10T08:38:50.289Z,16.91
2023-05-10T08:39:49.882Z,16.98
2023-05-10T08:40:50.400Z,17.02
2023-05-10T08:41:51.444Z,17.06
2023-05-10T08:42:52.293Z,17.13
2023-05-10T08:43:53.925Z,17.25
2023-05-10T08:44:53.352Z,17.41
2023-05-10T08:45:53.878Z,17.49
2023-05-10T08:46:54.795Z,17.56
2023-05-10T08:47:56.054Z,17.69
2023-05-10T08:48:56.644Z,17.50
2023-05-10T08:49:57.116Z,17.34
2023-05-10T08:51:01.104Z,17.34
2023-05-10T08:52:00.129Z,17.45
2023-05-10T08:53:00.127Z,17.57
2023-05-10T08:53:59.760Z,17.78
2023-05-10T08:55:00.379Z,18.06
2023-05-10T08:56:01.226Z,18.17
2023-05-10T08:57:02.796Z,18.17
2023-05-10T08:58:03.305Z,18.30
2023-05-10T08:59:03.863Z,18.36
2023-05-10T09:00:03.863Z,18.21
2023-05-10T09:01:11.547Z,18.20
2023-05-10T09:02:06.342Z,18.31
2023-05-10T09:03:05.872Z,18.34
2023-05-10T09:04:06.447Z,18.49
2023-05-10T09:05:28.416Z,18.51
2023-05-10T09:06:09.008Z,18.54
2023-05-10T09:07:12.679Z,18.60
2023-05-10T09:08:11.100Z,18.75
2023-05-10T09:09:12.580Z,18.86
2023-05-10T09:10:13.143Z,18.93
2023-05-10T09:11:13.213Z,18.88
2023-05-10T09:12:13.231Z,18.78
2023-05-10T09:13:13.063Z,18.82
2023-05-10T09:14:14.629Z,18.75
2023-05-10T09:15:13.692Z,18.74
2023-05-10T09:16:21.640Z,18.79
2023-05-10T09:17:17.733Z,18.91
2023-05-10T09:20:07.438Z,19.17
2023-05-10T09:21:05.859Z,19.05
2023-05-10T09:22:08.354Z,18.98
2023-05-10T09:23:07.328Z,18.71
2023-05-10T09:24:08.276Z,18.66
2023-05-10T09:25:14.738Z,18.70
2023-05-10T09:26:10.066Z,18.83
2023-05-10T09:27:10.772Z,18.78
2023-05-10T09:28:11.248Z,18.76
2023-05-10T09:29:12.262Z,18.64
2023-05-10T09:30:12.827Z,18.48
2023-05-10T09:31:14.910Z,18.39
2023-05-10T09:32:14.345Z,18.68
2023-05-10T09:33:15.441Z,19.07
2023-05-10T09:34:15.919Z,19.45
2023-05-10T09:35:16.863Z,19.71
2023-05-10T09:36:17.235Z,19.93
2023-05-10T09:37:17.900Z,20.12
2023-05-10T09:38:18.566Z,20.04
2023-05-10T09:39:19.428Z,19.97
2023-05-10T09:40:20.065Z,19.84
2023-05-10T09:41:20.462Z,19.82
2023-05-10T09:42:21.403Z,19.89
2023-05-10T09:43:22.281Z,19.93
2023-05-10T09:44:23.282Z,19.71
2023-05-10T09:45:24.126Z,19.67
2023-05-10T09:46:25.148Z,19.64
2023-05-10T09:47:25.674Z,19.53
2023-05-10T09:48:26.175Z,19.54
2023-05-10T09:49:27.058Z,19.60
2023-05-10T09:50:27.960Z,19.47
2023-05-10T09:51:29.011Z,19.62
2023-05-10T09:52:29.432Z,19.67
2023-05-10T09:53:30.315Z,19.68
2023-05-10T09:54:31.219Z,19.59
2023-05-10T09:55:32.074Z,19.19
2023-05-10T09:56:32.961Z,18.88
2023-05-10T09:57:35.222Z,18.75
2023-05-10T09:58:34.765Z,18.39
2023-05-10T09:59:35.642Z,18.51
2023-05-10T10:00:36.520Z,18.70
2023-05-10T10:01:37.592Z,19.07
2023-05-10T10:02:38.204Z,19.32
2023-05-10T10:03:38.607Z,19.49
2023-05-10T10:04:39.513Z,19.57
2023-05-10T10:05:40.367Z,19.47
2023-05-10T10:06:41.273Z,19.41
2023-05-10T10:07:42.181Z,19.38
2023-05-10T10:08:43.093Z,19.09
2023-05-10T10:09:43.998Z,19.09
2023-05-10T10:10:44.975Z,19.17
2023-05-10T10:11:45.797Z,19.19
2023-05-10T10:12:46.754Z,19.09
2023-05-10T10:13:47.643Z,18.89
2023-05-10T10:14:48.538Z,18.81
2023-05-10T10:15:49.431Z,18.68
2023-05-10T10:17:05.844Z,18.75
2023-05-10T10:17:52.206Z,18.74
2023-05-10T10:18:51.650Z,18.64
2023-05-10T10:19:52.558Z,18.58
2023-05-10T10:20:53.423Z,18.66
2023-05-10T10:21:54.316Z,18.70
2023-05-10T10:22:55.240Z,18.81
2023-05-10T10:23:56.145Z,18.98
2023-05-10T10:24:57.034Z,19.16
2023-05-10T10:25:57.901Z,19.34
2023-05-10T10:26:58.782Z,19.56
2023-05-10T10:27:59.727Z,19.79
2023-05-10T10:29:00.593Z,20.02
2023-05-10T10:30:01.480Z,20.09
2023-05-10T10:31:02.494Z,19.92
2023-05-10T10:32:02.849Z,20.04
2023-05-10T10:33:07.941Z,20.11
2023-05-10T10:34:05.538Z,19.89
2023-05-10T10:35:05.508Z,19.78
2023-05-10T10:36:06.347Z,19.75
2023-05-10T10:37:07.256Z,19.70
2023-05-10T10:38:08.146Z,19.84
2023-05-10T10:39:09.029Z,19.72
2023-05-10T10:40:09.937Z,19.63
2023-05-10T10:41:10.809Z,19.74
2023-05-10T10:42:11.706Z,19.62
2023-05-10T10:43:12.648Z,19.68
2023-05-10T10:44:13.476Z,19.68
2023-05-10T10:45:14.629Z,19.72
2023-05-10T10:46:15.403Z,19.75
2023-05-10T10:47:42.057Z,19.79
2023-05-10T10:48:16.424Z,19.92
2023-05-10T10:49:17.416Z,19.86
2023-05-10T10:50:17.891Z,19.84
2023-05-10T10:51:18.784Z,19.87
2023-05-10T10:52:19.783Z,19.71
2023-05-10T10:53:20.313Z,19.64
2023-05-10T10:54:20.751Z,19.71
2023-05-10T10:55:21.614Z,19.77
2023-05-10T10:56:22.515Z,19.87
2023-05-10T10:57:23.385Z,20.07
2023-05-10T10:58:24.316Z,20.02
2023-05-10T10:59:25.195Z,20.07
2023-05-10T11:00:26.194Z,19.89
2023-05-10T11:01:27.077Z,19.68
2023-05-10T11:02:30.063Z,19.77
2023-05-10T11:03:28.709Z,20.04
2023-05-10T11:04:29.177Z,20.23
2023-05-10T11:05:29.695Z,20.27
2023-05-10T11:06:30.665Z,20.18
2023-05-10T11:07:31.594Z,20.15
2023-05-10T11:08:32.616Z,19.96
2023-05-10T11:09:33.020Z,19.90
2023-05-10T11:10:33.956Z,19.75
2023-05-10T11:11:34.968Z,19.72
2023-05-10T11:12:35.396Z,19.86
2023-05-10T11:13:36.397Z,19.99
2023-05-10T11:14:37.027Z,20.11
2023-05-10T11:15:37.490Z,20.17
2023-05-10T11:16:37.967Z,20.29
2023-05-10T11:17:39.019Z,20.44
2023-05-10T11:18:39.486Z,20.68
2023-05-10T11:19:40.489Z,20.89
2023-05-10T11:20:40.971Z,20.65
2023-05-10T11:21:41.876Z,20.55
2023-05-10T11:22:42.894Z,20.25
2023-05-10T11:23:43.323Z,20.08
2023-05-10T11:24:44.212Z,19.97
2023-05-10T11:25:45.120Z,19.96
2023-05-10T11:26:46.045Z,19.87
2023-05-10T11:27:47.086Z,19.78
2023-05-10T11:28:48.314Z,19.54
2023-05-10T11:29:48.207Z,19.27
2023-05-10T11:30:49.203Z,19.22
2023-05-10T11:31:50.091Z,19.12
2023-05-10T11:32:51.069Z,19.08
2023-05-10T11:33:51.543Z,19.08
2023-05-10T11:34:51.991Z,19.19
2023-05-10T11:35:52.958Z,19.59
2023-05-10T11:36:53.935Z,19.82
2023-05-10T11:37:54.374Z,19.77
2023-05-10T11:38:55.352Z,19.77
2023-05-10T11:39:56.220Z,19.90
2023-05-10T11:40:57.143Z,19.93
2023-05-10T11:41:58.043Z,19.75
2023-05-10T11:42:58.914Z,19.75
2023-05-10T11:43:59.895Z,19.86
2023-05-10T11:45:01.426Z,19.67
2023-05-10T11:46:01.291Z,19.53
2023-05-10T11:47:02.283Z,19.52
2023-05-10T11:48:02.762Z,19.67
2023-05-10T11:49:03.312Z,19.96
2023-05-10T11:50:03.726Z,20.23
2023-05-10T11:51:04.776Z,20.49
2023-05-10T11:52:05.209Z,20.39
2023-05-10T11:53:06.153Z,20.48
2023-05-10T11:54:07.132Z,20.55
2023-05-10T11:55:07.631Z,20.49
2023-05-10T11:56:09.050Z,20.27
2023-05-10T11:57:08.995Z,20.14
2023-05-10T11:58:09.910Z,19.94
2023-05-10T11:59:10.898Z,19.72
2023-05-10T12:00:11.761Z,19.56
2023-05-10T12:01:12.734Z,19.38
2023-05-10T12:02:13.637Z,19.17
2023-05-10T12:03:14.596Z,19.12
2023-05-10T12:04:15.270Z,19.12
2023-05-10T12:05:15.713Z,19.07
2023-05-10T12:06:16.578Z,18.97
2023-05-10T12:07:17.462Z,18.91
2023-05-10T12:08:18.336Z,18.85
2023-05-10T12:09:31.570Z,18.85
2023-05-10T12:10:21.165Z,18.81
2023-05-10T12:11:21.055Z,18.78
2023-05-10T12:12:21.977Z,18.91
2023-05-10T12:13:22.869Z,19.13
2023-05-10T12:14:23.820Z,19.38
2023-05-10T12:15:25.669Z,19.67
2023-05-10T12:16:25.637Z,19.72
2023-05-10T12:17:26.595Z,19.75
2023-05-10T12:18:27.574Z,19.79
2023-05-10T12:19:28.590Z,19.96
2023-05-10T12:20:28.982Z,19.97
2023-05-10T12:21:29.875Z,20.02
2023-05-10T12:22:30.815Z,20.23
2023-05-10T12:23:31.699Z,20.29
2023-05-10T12:24:32.603Z,20.49
2023-05-10T12:25:33.523Z,20.77
2023-05-10T12:26:34.501Z,20.75
2023-05-10T12:27:35.424Z,20.71
2023-05-10T12:28:36.339Z,20.48
2023-05-10T12:29:37.449Z,20.19
2023-05-10T12:30:37.820Z,20.00
2023-05-10T12:31:38.769Z,20.04
2023-05-10T12:32:39.748Z,20.14
2023-05-10T12:33:40.290Z,20.15
2023-05-10T12:34:40.810Z,19.99
2023-05-10T12:35:43.072Z,19.94
2023-05-10T12:36:42.016Z,20.00
2023-05-10T12:37:42.893Z,20.12
2023-05-10T12:38:43.774Z,20.18
2023-05-10T12:39:44.726Z,20.22
2023-05-10T12:40:45.662Z,20.42
2023-05-10T12:41:46.512Z,20.49
2023-05-10T12:42:47.455Z,20.36
2023-05-10T12:43:48.328Z,20.42
2023-05-10T12:44:49.331Z,20.48
2023-05-10T12:45:49.768Z,20.52
2023-05-10T12:46:50.680Z,20.36
2023-05-10T12:47:51.595Z,20.19
2023-05-10T12:49:00.221Z,20.14
2023-05-10T12:49:54.298Z,20.37
2023-05-10T12:50:54.211Z,20.68
2023-05-10T12:51:55.107Z,20.68
2023-05-10T12:52:55.997Z,20.67
2023-05-10T12:53:56.862Z,20.65
2023-05-10T12:54:57.770Z,20.68
2023-05-10T12:55:58.676Z,20.61
2023-05-10T12:56:59.562Z,20.48
2023-05-10T12:58:00.427Z,20.44
2023-05-10T12:59:01.321Z,20.41
2023-05-10T13:00:02.339Z,20.29
2023-05-10T13:01:02.752Z,20.26
2023-05-10T13:02:03.645Z,20.30
2023-05-10T13:03:04.568Z,20.30
2023-05-10T13:04:05.440Z,20.22
2023-05-10T13:05:06.643Z,19.96